createdAt,value
2022-08-16T00:01:26.389Z,100911.00
2022-08-16T00:03:55.143Z,100886.34
2022-08-16T00:06:25.041Z,100907.59
2022-08-16T00:08:53.394Z,100907.63
2022-08-16T00:11:21.910Z,100897.91
2022-08-16T00:13:53.658Z,100907.75
2022-08-16T00:17:01.303Z,100903.34
2022-08-16T00:19:13.922Z,100899.81
2022-08-16T00:21:44.312Z,100901.63
2022-08-16T00:24:14.138Z,100888.41
2022-08-16T00:27:01.613Z,100899.91
2022-08-16T00:29:30.216Z,100900.84
2022-08-16T00:32:01.626Z,100908.81
2022-08-16T00:34:44.274Z,100893.84
2022-08-16T00:37:24.473Z,100912.41
2022-08-16T00:39:58.837Z,100916.00
2022-08-16T00:42:31.444Z,100907.97
2022-08-16T00:45:09.330Z,100916.00
2022-08-16T00:47:49.155Z,100903.56
2022-08-16T00:50:20.539Z,100906.28
2022-08-16T00:52:50.927Z,100904.53
2022-08-16T00:55:22.372Z,100909.88
2022-08-16T00:57:59.770Z,100916.16
2022-08-16T01:00:31.088Z,100912.63
2022-08-16T01:03:03.540Z,100916.19
2022-08-16T01:05:32.798Z,100904.66
2022-08-16T01:08:19.598Z,100907.34
2022-08-16T01:10:52.973Z,100909.16
2022-08-16T01:13:23.922Z,100911.84
2022-08-16T01:16:01.187Z,100907.41
2022-08-16T01:18:39.030Z,100908.34
2022-08-16T01:21:22.128Z,100868.56
2022-08-16T01:24:52.501Z,100884.44
2022-08-16T01:27:15.056Z,100909.19
2022-08-16T01:29:57.615Z,100910.97
2022-08-16T01:32:33.657Z,100889.81
2022-08-16T01:35:03.702Z,100900.34
2022-08-16T01:37:42.473Z,100872.13
2022-08-16T01:40:13.618Z,100902.16
2022-08-16T01:42:47.927Z,100898.63
2022-08-16T01:45:19.760Z,100895.13
2022-08-16T01:47:51.212Z,100887.19
2022-08-16T01:50:43.087Z,100902.28
2022-08-16T01:53:11.018Z,100877.59
2022-08-16T01:55:42.855Z,100897.84
2022-08-16T01:58:24.906Z,100890.72
2022-08-16T02:00:53.000Z,100890.81
2022-08-16T02:03:24.439Z,100888.09
2022-08-16T02:05:54.961Z,100893.47
2022-08-16T02:08:32.769Z,100892.56
2022-08-16T02:11:06.712Z,100887.25
2022-08-16T02:13:35.197Z,100893.47
2022-08-16T02:16:03.668Z,100884.59
2022-08-16T02:18:31.954Z,100853.75
2022-08-16T02:21:03.380Z,100881.94
2022-08-16T02:23:33.421Z,100876.63
2022-08-16T02:26:01.481Z,100879.31
2022-08-16T02:28:31.658Z,100876.66
2022-08-16T02:31:09.077Z,100879.34
2022-08-16T02:33:44.466Z,100805.34
2022-08-16T02:36:48.221Z,100875.78
2022-08-16T02:39:09.555Z,100859.06
2022-08-16T02:41:40.405Z,100871.41
2022-08-16T02:44:13.764Z,100861.63
2022-08-16T02:46:50.360Z,100862.53
2022-08-16T02:49:20.300Z,100869.63
2022-08-16T02:51:48.808Z,100864.28
2022-08-16T02:54:18.359Z,100863.44
2022-08-16T02:56:47.871Z,100862.56
2022-08-16T02:59:17.624Z,100861.69
2022-08-16T03:01:47.143Z,100861.66
2022-08-16T03:04:30.083Z,100859.06
2022-08-16T03:07:06.368Z,100858.13
2022-08-16T03:09:35.121Z,100861.66
2022-08-16T03:12:05.327Z,100855.56
2022-08-16T03:14:35.475Z,100863.41
2022-08-16T03:17:03.454Z,100864.31
2022-08-16T03:19:52.782Z,100866.09
2022-08-16T03:22:28.767Z,100863.41
2022-08-16T03:25:00.748Z,100858.97
2022-08-16T03:27:31.541Z,100853.63
2022-08-16T03:30:16.287Z,100850.06
2022-08-16T03:32:47.174Z,100857.16
2022-08-16T03:35:17.814Z,100853.56
2022-08-16T03:38:02.555Z,100866.00
2022-08-16T03:40:33.978Z,100856.22
2022-08-16T03:43:20.413Z,100863.31
2022-08-16T03:45:53.246Z,100828.09
2022-08-16T03:48:37.007Z,100850.13
2022-08-16T03:51:12.274Z,100855.34
2022-08-16T03:53:41.959Z,100866.81
2022-08-16T03:56:19.821Z,100834.22
2022-08-16T03:58:51.074Z,100867.66
2022-08-16T04:01:23.539Z,100870.28
2022-08-16T04:03:57.611Z,100856.19
2022-08-16T04:06:25.591Z,100834.19
2022-08-16T04:08:54.666Z,100877.34
2022-08-16T04:11:23.682Z,100857.84
2022-08-16T04:14:01.460Z,100882.47
2022-08-16T04:16:38.285Z,100874.41
2022-08-16T04:19:06.431Z,100878.78
2022-08-16T04:21:35.507Z,100870.81
2022-08-16T04:24:08.016Z,100873.41
2022-08-16T04:26:36.392Z,100883.13
2022-08-16T04:29:21.126Z,100879.50
2022-08-16T04:31:56.753Z,100873.19
2022-08-16T04:34:28.374Z,100881.06
2022-08-16T04:36:57.802Z,100889.88
2022-08-16T04:39:37.010Z,100881.75
2022-08-16T04:42:15.199Z,100879.91
2022-08-16T04:44:54.140Z,100882.44
2022-08-16T04:47:31.386Z,100889.44
2022-08-16T04:50:00.150Z,100868.97
2022-08-16T04:52:33.961Z,100891.06
2022-08-16T04:55:06.349Z,100887.41
2022-08-16T04:57:35.729Z,100881.97
2022-08-16T05:00:30.729Z,100884.56
2022-08-16T05:02:58.897Z,100879.13
2022-08-16T05:05:32.933Z,100872.84
2022-08-16T05:08:29.674Z,100874.53
2022-08-16T05:11:00.018Z,100875.31
2022-08-16T05:13:41.287Z,100877.84
2022-08-16T05:16:19.812Z,100859.13
2022-08-16T05:18:53.912Z,100874.03
2022-08-16T05:21:26.879Z,100874.84
2022-08-16T05:24:00.286Z,100871.16
2022-08-16T05:26:32.228Z,100879.03
2022-08-16T05:29:03.615Z,100873.66
2022-08-16T05:31:32.673Z,100867.34
2022-08-16T05:34:05.507Z,100871.66
2022-08-16T05:36:51.272Z,100859.97
2022-08-16T05:39:22.287Z,100865.16
2022-08-16T05:41:51.679Z,100868.56
2022-08-16T05:44:23.903Z,100869.31
2022-08-16T05:46:55.070Z,100867.41
2022-08-16T05:49:38.619Z,100869.09
2022-08-16T05:52:11.647Z,100842.53
2022-08-16T05:54:47.212Z,100865.22
2022-08-16T05:57:16.562Z,100873.06
2022-08-16T05:59:45.658Z,100877.34
2022-08-16T06:02:14.275Z,100874.56
2022-08-16T06:04:44.887Z,100862.16
2022-08-16T06:07:24.614Z,100870.88
2022-08-16T06:09:56.400Z,100874.97
2022-08-16T06:12:26.915Z,100873.00
2022-08-16T06:14:59.356Z,100868.47
2022-08-16T06:17:41.461Z,100861.19
2022-08-16T06:20:24.080Z,100864.41
2022-08-16T06:22:57.523Z,100854.28
2022-08-16T06:25:36.081Z,100800.47
2022-08-16T06:28:08.928Z,100838.97
2022-08-16T06:30:43.589Z,100855.59
2022-08-16T06:33:12.850Z,100857.16
2022-08-16T06:35:49.592Z,100841.16
2022-08-16T06:38:32.153Z,100854.03
2022-08-16T06:41:04.114Z,100852.72
2022-08-16T06:43:33.062Z,100851.56
2022-08-16T06:46:03.720Z,100833.63
2022-08-16T06:48:33.700Z,100850.06
2022-08-16T06:51:05.933Z,100846.28
2022-08-16T06:53:35.427Z,100853.97
2022-08-16T06:56:14.661Z,100843.94
2022-08-16T06:58:52.386Z,100836.41
2022-08-16T07:01:42.933Z,100832.78
2022-08-16T07:04:11.906Z,100840.59
2022-08-16T07:06:43.208Z,100853.44
2022-08-16T07:09:12.394Z,100810.91
2022-08-16T07:11:47.373Z,100838.66
2022-08-16T07:14:24.084Z,100854.91
2022-08-16T07:16:58.231Z,100841.88
2022-08-16T07:19:33.648Z,100849.13
2022-08-16T07:22:37.246Z,100799.81
2022-08-16T07:25:09.068Z,100843.47
2022-08-16T07:27:38.629Z,100836.84
2022-08-16T07:30:39.841Z,100825.88
2022-08-16T07:32:59.902Z,100847.78
2022-08-16T07:35:28.406Z,100845.88
2022-08-16T07:37:58.061Z,100844.94
2022-08-16T07:40:57.962Z,100837.28
2022-08-16T07:43:14.983Z,100844.38
2022-08-16T07:45:43.237Z,100840.81
2022-08-16T07:48:14.218Z,100841.84
2022-08-16T07:50:55.985Z,100834.31
2022-08-16T07:53:29.677Z,100832.69
2022-08-16T07:56:00.456Z,100844.72
2022-08-16T07:58:34.122Z,100840.22
2022-08-16T08:01:10.459Z,100844.75
2022-08-16T08:03:44.901Z,100839.31
2022-08-16T08:06:17.445Z,100845.03
2022-08-16T08:08:51.266Z,100843.78
2022-08-16T08:11:23.647Z,100842.69
2022-08-16T08:13:53.545Z,100836.50
2022-08-16T08:16:30.520Z,100825.25
2022-08-16T08:19:02.458Z,100751.47
2022-08-16T08:21:58.512Z,100836.75
2022-08-16T08:24:32.177Z,100835.66
2022-08-16T08:27:02.120Z,100835.69
2022-08-16T08:29:37.097Z,100840.38
2022-08-16T08:32:56.512Z,100808.03
2022-08-16T08:35:00.321Z,100847.03
2022-08-16T08:37:54.762Z,100840.38
2022-08-16T08:40:24.698Z,100831.75
2022-08-16T08:42:58.001Z,100843.00
2022-08-16T08:45:48.345Z,100837.56
2022-08-16T08:48:33.491Z,100849.88
2022-08-16T08:51:04.621Z,100856.34
2022-08-16T08:53:33.758Z,100842.09
2022-08-16T08:56:22.486Z,100798.81
2022-08-16T08:58:54.950Z,100768.81
2022-08-16T09:01:31.772Z,100833.31
2022-08-16T09:04:05.653Z,100856.75
2022-08-16T09:06:34.142Z,100858.88
2022-08-16T09:09:03.428Z,100857.94
2022-08-16T09:11:40.697Z,100839.91
2022-08-16T09:14:23.665Z,100868.75
2022-08-16T09:17:02.723Z,100866.03
2022-08-16T09:19:40.868Z,100861.66
2022-08-16T09:22:19.762Z,100866.91
2022-08-16T09:24:53.449Z,100870.06
2022-08-16T09:27:25.358Z,100863.44
2022-08-16T09:29:59.924Z,100877.41
2022-08-16T09:32:30.470Z,100866.59
2022-08-16T09:34:59.792Z,100842.22
2022-08-16T09:37:36.709Z,100858.47
2022-08-16T09:40:17.903Z,100849.59
2022-08-16T09:43:05.843Z,100865.91
2022-08-16T09:45:39.181Z,100875.97
2022-08-16T09:48:08.754Z,100874.41
2022-08-16T09:50:39.084Z,100867.06
2022-08-16T09:53:16.594Z,100877.91
2022-08-16T09:55:49.448Z,100871.16
2022-08-16T09:58:40.738Z,100875.09
2022-08-16T10:01:08.733Z,100873.44
2022-08-16T10:04:01.732Z,100864.00
2022-08-16T10:06:33.350Z,100881.56
2022-08-16T10:09:05.781Z,100880.63
2022-08-16T10:11:52.077Z,100878.63
2022-08-16T10:14:24.699Z,100857.19
2022-08-16T10:17:03.462Z,100869.41
2022-08-16T10:19:32.119Z,100880.78
2022-08-16T10:22:05.101Z,100849.16
2022-08-16T10:24:33.819Z,100864.69
2022-08-16T10:27:25.911Z,100870.44
2022-08-16T10:30:00.408Z,100839.22
2022-08-16T10:32:32.205Z,100865.03
2022-08-16T10:35:00.968Z,100864.38
2022-08-16T10:37:32.707Z,100856.84
2022-08-16T10:40:28.301Z,100846.00
2022-08-16T10:42:55.247Z,100850.75
2022-08-16T10:45:25.607Z,100855.66
2022-08-16T10:48:00.691Z,100866.75
2022-08-16T10:50:32.682Z,100864.63
2022-08-16T10:53:07.321Z,100862.19
2022-08-16T10:55:44.827Z,100869.44
2022-08-16T10:58:18.146Z,100866.91
2022-08-16T11:00:48.385Z,100855.66
2022-08-16T11:06:07.534Z,100857.19
2022-08-16T11:08:44.795Z,100861.66
2022-08-16T11:11:19.841Z,100865.81
2022-08-16T11:13:58.817Z,100844.03
2022-08-16T11:19:18.151Z,100844.72
2022-08-16T11:24:43.465Z,100843.56
2022-08-16T11:27:20.638Z,100847.56
2022-08-16T11:29:52.131Z,100849.53
2022-08-16T11:32:22.779Z,100847.19
2022-08-16T11:35:10.349Z,100856.19
2022-08-16T11:40:32.500Z,100842.22
2022-08-16T11:43:01.609Z,100830.31
2022-08-16T11:45:33.570Z,100837.72
2022-08-16T11:48:06.042Z,100843.09
2022-08-16T11:50:35.204Z,100829.03
2022-08-16T11:53:05.727Z,100847.47
2022-08-16T11:55:38.411Z,100859.72
2022-08-16T11:58:07.935Z,100844.34
2022-08-16T12:00:51.458Z,100842.66
2022-08-16T12:03:34.379Z,100843.19
2022-08-16T12:06:10.904Z,100849.13
2022-08-16T12:08:55.634Z,100861.47
2022-08-16T12:11:24.046Z,100826.22
2022-08-16T12:13:55.067Z,100858.94
2022-08-16T12:16:23.059Z,100832.84
2022-08-16T12:19:00.815Z,100859.00
2022-08-16T12:21:36.066Z,100871.56
2022-08-16T12:24:17.176Z,100851.94
2022-08-16T12:26:45.328Z,100851.63
2022-08-16T12:29:13.289Z,100867.84
2022-08-16T12:32:00.530Z,100857.72
2022-08-16T12:34:30.890Z,100858.41
2022-08-16T12:37:02.618Z,100852.22
2022-08-16T12:39:31.578Z,100832.25
2022-08-16T12:42:01.404Z,100851.81
2022-08-16T12:44:31.427Z,100860.88
2022-08-16T12:47:17.034Z,100811.22
2022-08-16T12:49:46.748Z,100836.59
2022-08-16T12:52:33.020Z,100842.63
2022-08-16T12:55:03.047Z,100844.28
2022-08-16T12:57:36.504Z,100834.31
2022-08-16T13:00:08.034Z,100832.00
2022-08-16T13:02:43.012Z,100827.50
2022-08-16T13:05:12.754Z,100792.88
2022-08-16T13:07:45.198Z,100821.78
2022-08-16T13:10:37.262Z,100790.38
2022-08-16T13:13:09.291Z,100799.81
2022-08-16T13:15:56.876Z,100792.25
2022-08-16T13:18:34.119Z,100791.81
2022-08-16T13:21:06.744Z,100786.06
2022-08-16T13:23:36.145Z,100793.47
2022-08-16T13:26:17.311Z,100757.44
2022-08-16T13:28:47.921Z,100785.22
2022-08-16T13:31:17.037Z,100779.25
2022-08-16T13:33:45.358Z,100754.28
2022-08-16T13:36:32.290Z,100781.72
2022-08-16T13:39:05.262Z,100780.78
2022-08-16T13:41:33.807Z,100788.56
2022-08-16T13:44:04.184Z,100789.63
2022-08-16T13:46:38.811Z,100780.47
2022-08-16T13:49:06.998Z,100780.28
2022-08-16T13:51:36.265Z,100786.53
2022-08-16T13:54:07.903Z,100785.38
2022-08-16T13:56:39.745Z,100782.47
2022-08-16T13:59:20.460Z,100781.84
2022-08-16T14:01:54.968Z,100773.97
2022-08-16T14:04:26.532Z,100797.03
2022-08-16T14:06:57.727Z,100770.19
2022-08-16T14:09:28.348Z,100779.28
2022-08-16T14:11:57.398Z,100781.94
2022-08-16T14:14:29.303Z,100784.22
2022-08-16T14:16:58.615Z,100775.44
2022-08-16T14:19:27.858Z,100681.56
2022-08-16T14:22:13.428Z,100774.31
2022-08-16T14:24:41.837Z,100771.28
2022-08-16T14:27:15.465Z,100764.66
2022-08-16T14:29:43.483Z,100773.78
2022-08-16T14:32:21.926Z,100758.81
2022-08-16T14:35:01.728Z,100763.47
2022-08-16T14:37:31.907Z,100768.97
2022-08-16T14:40:00.590Z,100781.16
2022-08-16T14:42:29.159Z,100778.84
2022-08-16T14:44:57.392Z,100784.78
2022-08-16T14:47:34.236Z,100774.53
2022-08-16T14:50:05.681Z,100773.22
2022-08-16T14:52:54.729Z,100775.19
2022-08-16T14:55:24.694Z,100770.84
2022-08-16T14:57:54.508Z,100765.72
2022-08-16T15:00:27.047Z,100767.78
2022-08-16T15:03:04.524Z,100767.66
2022-08-16T15:05:32.903Z,100768.63
2022-08-16T15:08:02.586Z,100743.25
2022-08-16T15:10:32.099Z,100771.66
2022-08-16T15:13:01.270Z,100774.28
2022-08-16T15:15:31.504Z,100774.56
2022-08-16T15:18:01.858Z,100771.31
2022-08-16T15:20:33.862Z,100766.09
2022-08-16T15:23:06.218Z,100774.38
2022-08-16T15:25:41.520Z,100782.97
2022-08-16T15:28:30.807Z,100745.94
2022-08-16T15:31:03.021Z,100766.94
2022-08-16T15:33:32.600Z,100727.16
2022-08-16T15:36:02.423Z,100746.81
2022-08-16T15:38:56.784Z,100766.97
2022-08-16T15:41:54.961Z,100761.69
2022-08-16T15:44:26.671Z,100777.69
2022-08-16T15:47:00.046Z,100775.41
2022-08-16T15:49:37.217Z,100770.50
2022-08-16T15:52:10.646Z,100778.13
2022-08-16T15:54:53.453Z,100762.72
2022-08-16T15:57:24.554Z,100775.53
2022-08-16T15:59:56.118Z,100762.16
2022-08-16T16:02:31.174Z,100761.06
2022-08-16T16:05:02.463Z,100694.31
2022-08-16T16:07:33.914Z,100772.81
2022-08-16T16:10:07.714Z,100758.09
2022-08-16T16:12:54.509Z,100760.22
2022-08-16T16:15:25.295Z,100749.91
2022-08-16T16:17:55.451Z,100757.50
2022-08-16T16:20:27.518Z,100750.03
2022-08-16T16:22:58.048Z,100740.66
2022-08-16T16:25:29.221Z,100744.63
2022-08-16T16:27:59.797Z,100749.34
2022-08-16T16:30:38.077Z,100752.66
2022-08-16T16:33:20.520Z,100734.81
2022-08-16T16:35:55.524Z,100749.53
2022-08-16T16:38:31.047Z,100742.72
2022-08-16T16:41:02.834Z,100745.72
2022-08-16T16:43:31.537Z,100756.72
2022-08-16T16:46:41.383Z,100761.13
2022-08-16T16:48:54.898Z,100733.16
2022-08-16T16:51:27.972Z,100735.53
2022-08-16T16:53:57.460Z,100751.09
2022-08-16T16:56:33.295Z,100754.25
2022-08-16T16:59:08.892Z,100743.34
2022-08-16T17:01:57.729Z,100708.13
2022-08-16T17:04:31.603Z,100627.38
2022-08-16T17:07:00.717Z,100747.63
2022-08-16T17:09:28.657Z,100739.47
2022-08-16T17:11:59.468Z,100739.84
2022-08-16T17:14:32.359Z,100736.03
2022-08-16T17:17:05.153Z,100740.78
2022-08-16T17:19:33.268Z,100743.31
2022-08-16T17:22:02.166Z,100741.13
2022-08-16T17:24:39.653Z,100746.59
2022-08-16T17:27:10.270Z,100739.34
2022-08-16T17:29:45.879Z,100759.88
2022-08-16T17:32:46.735Z,100679.09
2022-08-16T17:35:16.184Z,100741.41
2022-08-16T17:37:50.753Z,100771.75
2022-08-16T17:40:46.701Z,100773.81
2022-08-16T17:43:18.859Z,100777.19
2022-08-16T17:45:47.657Z,100773.03
2022-08-16T17:48:15.733Z,100768.03
2022-08-16T17:50:44.151Z,100786.13
2022-08-16T17:53:15.769Z,100779.44
2022-08-16T17:55:47.782Z,100786.78
2022-08-16T17:58:17.615Z,100792.50
2022-08-16T18:00:52.439Z,100786.53
2022-08-16T18:04:02.267Z,100743.13
2022-08-16T18:06:16.102Z,100768.06
2022-08-16T18:08:44.094Z,100799.25
2022-08-16T18:11:13.523Z,100789.69
2022-08-16T18:13:43.390Z,100796.03
2022-08-16T18:16:12.056Z,100787.31
2022-08-16T18:18:40.112Z,100803.53
2022-08-16T18:21:25.982Z,100771.88
2022-08-16T18:23:55.020Z,100793.16
2022-08-16T18:26:23.190Z,100787.09
2022-08-16T18:28:52.796Z,100775.03
2022-08-16T18:31:20.911Z,100763.72
2022-08-16T18:33:49.522Z,100790.19
2022-08-16T18:36:22.775Z,100793.03
2022-08-16T18:38:50.861Z,100792.31
2022-08-16T18:41:19.639Z,100789.72
2022-08-16T18:44:23.911Z,100781.88
2022-08-16T18:46:37.189Z,100735.56
2022-08-16T18:49:05.475Z,100783.94
2022-08-16T18:51:33.646Z,100777.75
2022-08-16T18:54:01.903Z,100756.63
2022-08-16T18:56:56.073Z,100777.06
2022-08-16T18:59:18.160Z,100783.47
2022-08-16T19:01:49.065Z,100761.56
2022-08-16T19:04:56.042Z,100777.47
2022-08-16T19:07:06.452Z,100779.41
2022-08-16T19:09:34.527Z,100755.81
2022-08-16T19:12:05.388Z,100773.34
2022-08-16T19:14:33.696Z,100774.44
2022-08-16T19:17:02.985Z,100770.91
2022-08-16T19:19:31.562Z,100768.31
2022-08-16T19:21:59.730Z,100767.63
2022-08-16T19:24:29.377Z,100755.19
2022-08-16T19:26:57.475Z,100765.91
2022-08-16T19:29:25.796Z,100762.50
2022-08-16T19:31:53.658Z,100716.63
2022-08-16T19:34:22.990Z,100743.97
2022-08-16T19:36:51.257Z,100768.84
2022-08-16T19:39:19.308Z,100764.44
2022-08-16T19:41:53.678Z,100744.13
2022-08-16T19:44:22.494Z,100765.56
2022-08-16T19:46:50.689Z,100763.00
2022-08-16T19:49:18.677Z,100759.56
2022-08-16T19:51:49.166Z,100765.00
2022-08-16T19:54:17.657Z,100774.09
2022-08-16T19:56:45.681Z,100763.47
2022-08-16T19:59:19.830Z,100768.03
2022-08-16T20:01:51.869Z,100763.69
2022-08-16T20:04:21.841Z,100762.94
2022-08-16T20:06:52.604Z,100758.53
2022-08-16T20:09:20.991Z,100727.00
2022-08-16T20:11:52.459Z,100753.41
2022-08-16T20:14:25.151Z,100744.66
2022-08-16T20:16:56.554Z,100765.81
2022-08-16T20:19:24.754Z,100757.00
2022-08-16T20:21:56.445Z,100763.31
2022-08-16T20:24:35.270Z,100766.06
2022-08-16T20:27:04.337Z,100762.66
2022-08-16T20:29:32.600Z,100747.78
2022-08-16T20:32:01.750Z,100739.00
2022-08-16T20:34:29.800Z,100763.66
2022-08-16T20:36:59.550Z,100764.56
2022-08-16T20:39:27.546Z,100774.34
2022-08-16T20:41:55.474Z,100764.56
2022-08-16T20:44:25.151Z,100770.75
2022-08-16T20:46:53.684Z,100770.81
2022-08-16T20:49:21.599Z,100753.84
2022-08-16T20:51:53.741Z,100762.75
2022-08-16T20:54:25.377Z,100765.53
2022-08-16T20:56:53.746Z,100769.16
2022-08-16T20:59:22.147Z,100762.97
2022-08-16T21:01:50.902Z,100764.84
2022-08-16T21:04:20.212Z,100762.19
2022-08-16T21:06:54.251Z,100768.44
2022-08-16T21:09:25.310Z,100763.13
2022-08-16T21:11:54.579Z,100762.31
2022-08-16T21:14:22.921Z,100747.47
2022-08-16T21:16:51.489Z,100758.88
2022-08-16T21:19:19.532Z,100765.97
2022-08-16T21:21:47.807Z,100652.72
2022-08-16T21:24:16.130Z,100757.16
2022-08-16T21:26:55.570Z,100735.38
2022-08-16T21:29:27.867Z,100778.56
2022-08-16T21:32:11.177Z,100772.41
2022-08-16T21:34:39.799Z,100769.75
2022-08-16T21:37:07.766Z,100765.44
2022-08-16T21:39:35.943Z,100763.81
2022-08-16T21:42:09.525Z,100645.16
2022-08-16T21:44:38.849Z,100762.00
2022-08-16T21:47:08.288Z,100762.09
2022-08-16T21:49:36.815Z,100758.53
2022-08-16T21:52:05.373Z,100756.78
2022-08-16T21:54:33.718Z,100765.75
2022-08-16T21:57:01.853Z,100760.50
2022-08-16T21:59:31.126Z,100758.72
2022-08-16T22:01:59.399Z,100756.97
2022-08-16T22:04:37.678Z,100760.59
2022-08-16T22:07:07.483Z,100740.31
2022-08-16T22:09:35.816Z,100759.75
2022-08-16T22:12:03.748Z,100774.00
2022-08-16T22:14:33.535Z,100754.63
2022-08-16T22:17:01.893Z,100714.25
2022-08-16T22:19:30.072Z,100765.28
2022-08-16T22:22:00.558Z,100767.97
2022-08-16T22:24:28.859Z,100763.47
2022-08-16T22:26:56.834Z,100758.19
2022-08-16T22:29:25.318Z,100725.72
2022-08-16T22:31:54.820Z,100759.94
2022-08-16T22:34:22.941Z,100759.09
2022-08-16T22:36:51.690Z,100752.06
2022-08-16T22:39:19.903Z,100756.53
2022-08-16T22:41:49.889Z,100764.53
2022-08-16T22:44:18.922Z,100765.47
2022-08-16T22:46:47.033Z,100768.19
2022-08-16T22:49:17.038Z,100764.72
2022-08-16T22:51:44.982Z,100745.44
2022-08-16T22:54:45.856Z,100764.94
2022-08-16T22:57:01.038Z,100721.84
2022-08-16T22:59:30.521Z,100725.41
2022-08-16T23:01:58.970Z,100754.44
2022-08-16T23:04:28.518Z,100748.25
2022-08-16T23:06:57.222Z,100765.22
2022-08-16T23:09:25.143Z,100753.69
2022-08-16T23:11:53.489Z,100749.31
2022-08-16T23:14:21.539Z,100743.19
2022-08-16T23:16:49.499Z,100748.53
2022-08-16T23:19:18.157Z,100638.72
2022-08-16T23:21:49.573Z,100752.16
2022-08-16T23:24:20.528Z,100751.31
2022-08-16T23:26:49.494Z,100749.56
2022-08-16T23:29:22.259Z,100744.25
2022-08-16T23:31:54.065Z,100746.97
2022-08-16T23:34:22.192Z,100747.84
2022-08-16T23:36:51.570Z,100739.81
2022-08-16T23:39:19.797Z,100741.66
2022-08-16T23:41:47.944Z,100704.81
2022-08-16T23:44:45.518Z,100739.94
2022-08-16T23:47:06.287Z,100735.59
2022-08-16T23:49:57.675Z,100743.56
2022-08-16T23:52:53.549Z,100744.53
2022-08-16T23:55:12.906Z,100734.88
2022-08-16T23:57:41.232Z,100691.66
